Terminal Aerodrome Forecast
Issued by NWS

Home | Current Version | Previous Version | Text Only | Print | Product List | Glossary On
Versions: 1 2 3 4 5 6 7 8 9 10 11 12 13 14 15 16 17
104
FTUS46 KHNX 131900 AAA
TAFMER
TAF AMD
KMER 131900Z 1319/1418 32007KT 3SM BR SKC
     FM132000 32008KT 5SM HZ SKC
     FM140300 31004KT P6SM SKC
     FM140800 VRB03KT 4SM BR SKC=

USA.gov is the U.S. government's official web portal to all federal, state and local government web resources and services.